createdAt,value
2023-05-25T00:00:17.546Z,19.93
2023-05-25T00:01:17.648Z,20.25
2023-05-25T00:02:17.791Z,20.58
2023-05-25T00:03:17.856Z,19.93
2023-05-25T00:04:18.078Z,20.25
2023-05-25T00:05:18.034Z,20.58
2023-05-25T00:06:18.065Z,20.25
2023-05-25T00:07:18.144Z,20.58
2023-05-25T00:08:18.220Z,19.29
2023-05-25T00:09:18.293Z,20.25
2023-05-25T00:10:18.362Z,20.90
2023-05-25T00:11:18.439Z,21.22
2023-05-25T00:12:18.513Z,19.93
2023-05-25T00:13:18.631Z,20.25
2023-05-25T00:14:18.665Z,19.61
2023-05-25T00:15:18.743Z,20.58
2023-05-25T00:16:18.820Z,20.25
2023-05-25T00:17:19.035Z,19.61
2023-05-25T00:18:19.053Z,20.58
2023-05-25T00:19:19.156Z,19.93
2023-05-25T00:20:19.145Z,19.93
2023-05-25T00:21:19.187Z,20.25
2023-05-25T00:22:19.258Z,20.25
2023-05-25T00:23:19.329Z,20.58
2023-05-25T00:24:19.407Z,19.61
2023-05-25T00:25:19.493Z,19.93
2023-05-25T00:26:19.579Z,20.25
2023-05-25T00:27:19.644Z,20.58
2023-05-25T00:28:19.726Z,21.22
2023-05-25T00:29:19.783Z,20.58
2023-05-25T00:30:19.846Z,20.25
2023-05-25T00:31:19.969Z,19.93
2023-05-25T00:32:19.983Z,21.22
2023-05-25T00:33:20.089Z,20.90
2023-05-25T00:34:20.179Z,20.58
2023-05-25T00:35:20.195Z,19.93
2023-05-25T00:36:20.292Z,20.25
2023-05-25T00:37:20.355Z,19.93
2023-05-25T00:38:20.435Z,20.58
2023-05-25T00:39:20.513Z,22.19
2023-05-25T00:40:20.579Z,19.61
2023-05-25T00:41:20.664Z,19.93
2023-05-25T00:42:20.779Z,19.93
2023-05-25T00:43:20.825Z,19.61
2023-05-25T00:44:21.138Z,20.25
2023-05-25T00:45:20.994Z,20.58
2023-05-25T00:46:21.101Z,21.22
2023-05-25T00:47:21.140Z,20.25
2023-05-25T00:48:21.221Z,19.93
2023-05-25T00:49:21.306Z,20.25
2023-05-25T00:50:21.379Z,21.22
2023-05-25T00:51:21.478Z,19.93
2023-05-25T00:52:21.577Z,19.93
2023-05-25T00:53:21.652Z,19.93
2023-05-25T00:54:21.716Z,19.61
2023-05-25T00:55:21.804Z,20.25
2023-05-25T00:56:21.869Z,20.25
2023-05-25T00:57:21.943Z,20.25
2023-05-25T00:58:22.043Z,20.25
2023-05-25T00:59:22.123Z,22.83
2023-05-25T01:00:22.198Z,20.25
2023-05-25T01:01:22.326Z,19.93
2023-05-25T01:02:22.379Z,19.93
2023-05-25T01:03:22.532Z,20.58
2023-05-25T01:04:22.529Z,19.61
2023-05-25T01:05:22.629Z,19.29
2023-05-25T01:06:22.805Z,19.61
2023-05-25T01:07:22.782Z,20.25
2023-05-25T01:08:22.868Z,19.61
2023-05-25T01:09:22.940Z,20.25
2023-05-25T01:10:23.059Z,19.93
2023-05-25T01:11:23.143Z,20.25
2023-05-25T01:12:23.232Z,19.93
2023-05-25T01:13:23.301Z,19.93
2023-05-25T01:14:23.380Z,22.51
2023-05-25T01:15:23.472Z,20.25
2023-05-25T01:16:23.570Z,19.93
2023-05-25T01:17:23.703Z,21.54
2023-05-25T01:18:23.680Z,19.93
2023-05-25T01:19:23.761Z,21.54
2023-05-25T01:20:23.856Z,19.93
2023-05-25T01:21:23.918Z,20.25
2023-05-25T01:22:23.987Z,20.25
2023-05-25T01:23:24.065Z,19.61
2023-05-25T01:24:24.161Z,20.25
2023-05-25T01:25:24.243Z,19.61
2023-05-25T01:26:24.322Z,20.25
2023-05-25T01:27:24.440Z,19.93
2023-05-25T01:28:24.483Z,19.93
2023-05-25T01:29:24.582Z,19.93
2023-05-25T01:30:24.659Z,19.93
2023-05-25T01:31:24.762Z,20.90
2023-05-25T01:32:24.837Z,20.90
2023-05-25T01:33:24.895Z,19.93
2023-05-25T01:34:24.973Z,20.25
2023-05-25T01:35:25.052Z,21.22
2023-05-25T01:36:25.161Z,19.93
2023-05-25T01:37:25.220Z,19.93
2023-05-25T01:38:25.284Z,19.61
2023-05-25T01:39:25.360Z,19.61
2023-05-25T01:40:25.436Z,20.25
2023-05-25T01:41:25.503Z,19.61
2023-05-25T01:42:25.576Z,19.93
2023-05-25T01:43:25.647Z,19.29
2023-05-25T01:44:25.721Z,19.61
2023-05-25T01:45:25.793Z,20.90
2023-05-25T01:46:25.951Z,20.25
2023-05-25T01:47:26.048Z,19.61
2023-05-25T01:48:26.087Z,19.93
2023-05-25T01:49:26.158Z,19.93
2023-05-25T01:50:26.231Z,20.58
2023-05-25T01:51:26.302Z,20.90
2023-05-25T01:52:26.452Z,19.93
2023-05-25T01:53:26.477Z,19.93
2023-05-25T01:54:26.561Z,20.25
2023-05-25T01:55:26.640Z,21.22
2023-05-25T01:56:26.711Z,19.93
2023-05-25T01:57:26.779Z,20.58
2023-05-25T01:58:26.870Z,20.25
2023-05-25T01:59:26.928Z,19.93
2023-05-25T02:00:27.015Z,20.25
2023-05-25T02:01:27.117Z,20.25
2023-05-25T02:02:27.237Z,19.93
2023-05-25T02:03:27.247Z,19.93
2023-05-25T02:04:27.383Z,21.54
2023-05-25T02:05:27.412Z,19.29
2023-05-25T02:06:27.493Z,19.61
2023-05-25T02:07:27.592Z,19.61
2023-05-25T02:08:27.653Z,19.29
2023-05-25T02:09:27.714Z,19.61
2023-05-25T02:10:27.784Z,21.87
2023-05-25T02:11:27.881Z,20.58
2023-05-25T02:12:27.955Z,20.25
2023-05-25T02:13:28.016Z,20.25
2023-05-25T02:14:28.106Z,19.93
2023-05-25T02:15:28.213Z,19.93
2023-05-25T02:16:28.401Z,19.61
2023-05-25T02:17:28.394Z,21.87
2023-05-25T02:18:28.440Z,19.93
2023-05-25T02:19:28.543Z,19.61
2023-05-25T02:20:28.664Z,21.22
2023-05-25T02:21:28.656Z,19.93
2023-05-25T02:22:28.730Z,20.58
2023-05-25T02:23:28.804Z,19.61
2023-05-25T02:24:28.904Z,19.93
2023-05-25T02:25:28.976Z,19.93
2023-05-25T02:26:29.043Z,19.93
2023-05-25T02:27:29.116Z,20.90
2023-05-25T02:28:29.223Z,19.93
2023-05-25T02:29:29.321Z,19.93
2023-05-25T02:30:29.398Z,20.90
2023-05-25T02:31:29.578Z,19.93
2023-05-25T02:32:29.698Z,19.61
2023-05-25T02:33:29.633Z,20.25
2023-05-25T02:34:29.696Z,21.22
2023-05-25T02:35:29.785Z,19.93
2023-05-25T02:36:29.842Z,19.29
2023-05-25T02:37:29.912Z,19.61
2023-05-25T02:38:29.987Z,20.25
2023-05-25T02:39:30.067Z,20.90
2023-05-25T02:40:30.131Z,18.96
2023-05-25T02:41:30.194Z,19.93
2023-05-25T02:42:30.278Z,20.25
2023-05-25T02:43:30.349Z,18.64
2023-05-25T02:44:30.417Z,21.22
2023-05-25T02:45:30.504Z,19.61
2023-05-25T02:46:30.627Z,20.25
2023-05-25T02:47:30.700Z,19.61
2023-05-25T02:48:30.736Z,19.61
2023-05-25T02:49:30.804Z,20.58
2023-05-25T02:50:30.902Z,20.25
2023-05-25T02:51:30.990Z,19.93
2023-05-25T02:52:31.069Z,21.22
2023-05-25T02:53:31.132Z,19.61
2023-05-25T02:54:31.197Z,21.22
2023-05-25T02:55:31.299Z,19.61
2023-05-25T02:56:31.380Z,19.93
2023-05-25T02:57:31.439Z,19.61
2023-05-25T02:58:31.539Z,20.90
2023-05-25T02:59:31.608Z,19.93
2023-05-25T03:00:31.683Z,19.93
2023-05-25T03:01:31.889Z,19.93
2023-05-25T03:02:31.894Z,19.93
2023-05-25T03:03:31.934Z,19.29
2023-05-25T03:04:31.961Z,19.29
2023-05-25T03:05:32.040Z,19.93
2023-05-25T03:06:32.121Z,22.19
2023-05-25T03:07:32.190Z,19.93
2023-05-25T03:08:32.280Z,20.58
2023-05-25T03:09:32.364Z,20.25
2023-05-25T03:10:32.430Z,19.61
2023-05-25T03:11:32.522Z,18.96
2023-05-25T03:12:32.592Z,19.93
2023-05-25T03:13:32.668Z,19.61
2023-05-25T03:14:32.753Z,19.93
2023-05-25T03:15:32.822Z,19.93
2023-05-25T03:16:32.981Z,21.54
2023-05-25T03:17:33.085Z,19.93
2023-05-25T03:18:33.090Z,20.90
2023-05-25T03:19:33.161Z,19.93
2023-05-25T03:20:33.329Z,19.61
2023-05-25T03:21:33.407Z,19.61
2023-05-25T03:22:33.422Z,20.25
2023-05-25T03:23:33.490Z,19.61
2023-05-25T03:24:33.583Z,19.93
2023-05-25T03:25:33.651Z,19.61
2023-05-25T03:26:33.742Z,19.61
2023-05-25T03:27:33.853Z,22.19
2023-05-25T03:28:33.920Z,20.25
2023-05-25T03:29:33.997Z,19.29
2023-05-25T03:30:34.089Z,20.25
2023-05-25T03:31:34.209Z,19.93
2023-05-25T03:32:34.262Z,21.87
2023-05-25T03:33:34.342Z,18.96
2023-05-25T03:34:34.410Z,19.93
2023-05-25T03:35:34.490Z,19.93
2023-05-25T03:36:34.555Z,20.25
2023-05-25T03:37:34.670Z,19.93
2023-05-25T03:38:34.733Z,19.61
2023-05-25T03:39:34.820Z,19.61
2023-05-25T03:40:34.894Z,19.93
2023-05-25T03:41:34.965Z,19.93
2023-05-25T03:42:35.057Z,19.61
2023-05-25T03:43:35.140Z,21.87
2023-05-25T03:44:35.212Z,19.93
2023-05-25T03:45:35.292Z,20.25
2023-05-25T03:46:35.423Z,19.93
2023-05-25T03:47:35.492Z,18.96
2023-05-25T03:48:35.533Z,20.58
2023-05-25T03:49:35.608Z,19.93
2023-05-25T03:50:35.691Z,19.29
2023-05-25T03:51:35.764Z,20.25
2023-05-25T03:52:35.837Z,20.58
2023-05-25T03:53:35.931Z,19.93
2023-05-25T03:54:35.968Z,19.61
2023-05-25T03:55:36.072Z,19.61
2023-05-25T03:56:36.153Z,20.25
2023-05-25T03:57:36.214Z,20.25
2023-05-25T03:58:36.291Z,19.93
2023-05-25T03:59:36.375Z,20.25
2023-05-25T04:00:36.452Z,20.25
2023-05-25T04:01:36.539Z,20.25
2023-05-25T04:02:36.724Z,20.25
2023-05-25T04:03:37.011Z,20.25
2023-05-25T04:04:36.899Z,20.25
2023-05-25T04:05:36.880Z,21.22
2023-05-25T04:06:36.959Z,20.25
2023-05-25T04:07:37.052Z,19.29
2023-05-25T04:08:37.127Z,20.58
2023-05-25T04:09:37.198Z,20.58
2023-05-25T04:10:37.278Z,20.25
2023-05-25T04:11:37.368Z,19.93
2023-05-25T04:12:37.456Z,20.25
2023-05-25T04:13:37.518Z,20.58
2023-05-25T04:14:37.595Z,20.58
2023-05-25T04:15:37.658Z,20.25
2023-05-25T04:16:37.880Z,20.90
2023-05-25T04:17:39.500Z,22.19
2023-05-25T04:18:37.890Z,20.58
2023-05-25T04:19:37.978Z,20.25
2023-05-25T04:20:38.274Z,21.54
2023-05-25T04:21:38.139Z,20.58
2023-05-25T04:22:38.217Z,20.90
2023-05-25T04:23:38.288Z,20.58
2023-05-25T04:24:38.389Z,20.58
2023-05-25T04:25:38.466Z,20.25
2023-05-25T04:26:38.557Z,20.58
2023-05-25T04:27:38.631Z,20.90
2023-05-25T04:28:38.725Z,20.58
2023-05-25T04:29:38.816Z,20.58
2023-05-25T04:30:38.904Z,20.90
2023-05-25T04:31:39.009Z,20.90
2023-05-25T04:32:39.055Z,20.90
2023-05-25T04:33:39.117Z,21.22
2023-05-25T04:34:39.189Z,21.22
2023-05-25T04:35:39.271Z,21.22
2023-05-25T04:36:39.340Z,20.25
2023-05-25T04:37:39.419Z,20.90
2023-05-25T04:38:39.496Z,20.90
2023-05-25T04:39:39.546Z,20.90
2023-05-25T04:40:39.641Z,22.83
2023-05-25T04:41:39.715Z,20.58
2023-05-25T04:42:39.833Z,20.90
2023-05-25T04:43:46.349Z,21.22
2023-05-25T04:44:39.978Z,21.22
2023-05-25T04:45:40.077Z,21.54
2023-05-25T04:46:40.136Z,21.54
2023-05-25T04:47:40.248Z,21.22
2023-05-25T04:48:40.262Z,20.90
2023-05-25T04:49:40.334Z,20.90
2023-05-25T04:50:42.155Z,21.22
2023-05-25T04:51:40.478Z,20.90
2023-05-25T04:52:40.545Z,21.54
2023-05-25T04:53:40.625Z,21.22
2023-05-25T04:54:40.682Z,21.22
2023-05-25T04:55:40.760Z,21.54
2023-05-25T04:56:40.840Z,21.22
2023-05-25T04:57:40.907Z,21.22
2023-05-25T04:58:40.984Z,22.19
2023-05-25T04:59:41.054Z,21.22
2023-05-25T05:00:41.115Z,22.19
2023-05-25T05:01:41.426Z,21.54
2023-05-25T05:02:41.273Z,21.87
2023-05-25T05:03:41.374Z,24.12
2023-05-25T05:04:41.395Z,21.22
2023-05-25T05:05:41.598Z,21.54
2023-05-25T05:06:41.549Z,21.54
2023-05-25T05:07:41.610Z,21.22
2023-05-25T05:08:41.794Z,21.54
2023-05-25T05:09:41.766Z,21.54
2023-05-25T05:10:42.231Z,21.54
2023-05-25T05:11:41.939Z,21.54
2023-05-25T05:12:42.001Z,21.54
2023-05-25T05:13:42.079Z,21.22
2023-05-25T05:14:42.174Z,21.54
2023-05-25T05:15:42.349Z,21.22
2023-05-25T05:16:42.373Z,23.15
2023-05-25T05:17:42.448Z,21.87
2023-05-25T05:18:42.455Z,21.54
2023-05-25T05:19:42.531Z,21.22
2023-05-25T05:20:42.681Z,20.25
2023-05-25T05:21:42.683Z,21.87
2023-05-25T05:22:42.761Z,21.54
2023-05-25T05:23:42.831Z,21.87
2023-05-25T05:24:42.936Z,21.87
2023-05-25T05:25:43.199Z,21.87
2023-05-25T05:26:56.707Z,21.87
2023-05-25T05:27:43.170Z,21.87
2023-05-25T05:28:43.230Z,23.48
2023-05-25T05:29:43.337Z,21.54
2023-05-25T05:30:43.409Z,21.54
2023-05-25T05:31:43.509Z,21.54
2023-05-25T05:32:45.935Z,20.90
2023-05-25T05:33:43.672Z,21.54
2023-05-25T05:34:43.741Z,21.54
2023-05-25T05:35:43.958Z,21.54
2023-05-25T05:36:56.717Z,22.51
2023-05-25T05:37:43.993Z,21.87
2023-05-25T05:38:43.985Z,22.19
2023-05-25T05:39:44.051Z,21.87
2023-05-25T05:40:44.131Z,21.54
2023-05-25T05:41:44.231Z,21.87
2023-05-25T05:42:44.315Z,23.15
2023-05-25T05:43:44.385Z,23.80
2023-05-25T05:44:44.456Z,21.54
2023-05-25T05:45:44.704Z,21.87
2023-05-25T05:46:44.695Z,21.22
2023-05-25T05:47:44.741Z,21.54
2023-05-25T05:48:44.801Z,21.54
2023-05-25T05:49:44.873Z,21.87
2023-05-25T05:50:44.945Z,22.19
2023-05-25T05:51:45.026Z,24.12
2023-05-25T05:52:45.104Z,22.19
2023-05-25T05:53:45.192Z,21.54
2023-05-25T05:54:45.227Z,21.54
2023-05-25T05:55:52.962Z,22.19
2023-05-25T05:56:45.411Z,22.19
2023-05-25T05:57:45.487Z,22.19
2023-05-25T05:58:45.564Z,23.48
2023-05-25T05:59:45.643Z,23.80
2023-05-25T06:00:45.711Z,23.15
2023-05-25T06:01:45.806Z,21.87
2023-05-25T06:02:45.948Z,21.54
2023-05-25T06:03:45.964Z,21.87
2023-05-25T06:04:46.073Z,21.87
2023-05-25T06:05:46.462Z,22.83
2023-05-25T06:06:46.209Z,23.15
2023-05-25T06:07:46.285Z,21.87
2023-05-25T06:08:46.357Z,21.22
2023-05-25T06:09:46.431Z,21.22
2023-05-25T06:10:46.509Z,22.19
2023-05-25T06:11:46.586Z,22.19
2023-05-25T06:12:46.680Z,22.51
2023-05-25T06:13:46.881Z,21.87
2023-05-25T06:14:46.892Z,23.80
2023-05-25T06:15:47.187Z,22.19
2023-05-25T06:16:47.184Z,21.54
2023-05-25T06:17:47.167Z,21.87
2023-05-25T06:18:47.218Z,21.87
2023-05-25T06:19:47.334Z,21.87
2023-05-25T06:20:47.397Z,21.87
2023-05-25T06:21:47.473Z,22.83
2023-05-25T06:22:47.575Z,23.80
2023-05-25T06:23:47.628Z,21.87
2023-05-25T06:24:47.701Z,21.87
2023-05-25T06:25:47.768Z,21.87
2023-05-25T06:26:47.843Z,21.54
2023-05-25T06:27:47.941Z,21.22
2023-05-25T06:28:48.025Z,21.22
2023-05-25T06:29:48.088Z,20.90
2023-05-25T06:30:48.172Z,22.51
2023-05-25T06:31:48.272Z,21.54
2023-05-25T06:32:48.377Z,21.87
2023-05-25T06:33:48.448Z,23.48
2023-05-25T06:34:48.520Z,21.87
2023-05-25T06:35:48.782Z,21.54
2023-05-25T06:36:48.660Z,21.87
2023-05-25T06:37:49.320Z,21.87
2023-05-25T06:38:48.831Z,21.87
2023-05-25T06:39:48.908Z,21.87
2023-05-25T06:40:49.001Z,21.87
2023-05-25T06:41:49.131Z,21.54
2023-05-25T06:42:49.149Z,21.87
2023-05-25T06:43:49.233Z,21.87
2023-05-25T06:44:49.320Z,24.44
2023-05-25T06:45:49.445Z,22.19
2023-05-25T06:46:49.479Z,22.19
2023-05-25T06:47:49.565Z,22.19
2023-05-25T06:48:49.640Z,22.19
2023-05-25T06:49:49.718Z,22.19
2023-05-25T06:50:49.794Z,22.51
2023-05-25T06:51:49.869Z,21.87
2023-05-25T06:52:49.949Z,22.19
2023-05-25T06:53:50.016Z,22.51
2023-05-25T06:54:50.132Z,22.83
2023-05-25T06:55:50.150Z,21.87
2023-05-25T06:56:50.245Z,21.87
2023-05-25T06:57:50.316Z,22.51
2023-05-25T06:58:50.399Z,22.19
2023-05-25T06:59:50.474Z,22.19
2023-05-25T07:00:50.556Z,24.12
2023-05-25T07:01:50.731Z,21.87
2023-05-25T07:02:50.743Z,22.51
2023-05-25T07:03:50.787Z,22.51
2023-05-25T07:04:50.887Z,21.54
2023-05-25T07:05:50.947Z,22.83
2023-05-25T07:06:51.065Z,21.22
2023-05-25T07:07:51.126Z,21.87
2023-05-25T07:08:51.206Z,23.15
2023-05-25T07:09:51.270Z,21.87
2023-05-25T07:10:51.359Z,23.15
2023-05-25T07:11:51.421Z,23.80
2023-05-25T07:12:51.559Z,21.54
2023-05-25T07:13:51.604Z,24.44
2023-05-25T07:14:51.669Z,22.19
2023-05-25T07:15:51.765Z,21.87
2023-05-25T07:16:51.825Z,22.19
2023-05-25T07:17:51.963Z,21.87
2023-05-25T07:18:51.977Z,20.58
2023-05-25T07:19:52.083Z,18.00
2023-05-25T07:20:52.143Z,21.87
2023-05-25T07:21:52.214Z,21.22
2023-05-25T07:22:52.296Z,23.48
2023-05-25T07:23:52.395Z,20.25
2023-05-25T07:24:52.431Z,20.25
2023-05-25T07:25:52.517Z,19.61
2023-05-25T07:26:52.625Z,19.93
2023-05-25T07:27:52.686Z,19.61
2023-05-25T07:28:52.743Z,19.61
2023-05-25T07:29:52.815Z,19.93
2023-05-25T07:30:52.893Z,20.25
2023-05-25T07:31:53.055Z,21.22
2023-05-25T07:32:53.170Z,19.29
2023-05-25T07:33:53.136Z,20.25
2023-05-25T07:34:53.241Z,21.54
2023-05-25T07:35:53.333Z,18.96
2023-05-25T07:36:53.413Z,18.96
2023-05-25T07:37:53.471Z,19.29
2023-05-25T07:38:53.553Z,21.22
2023-05-25T07:39:53.627Z,19.61
2023-05-25T07:40:53.722Z,18.96
2023-05-25T07:41:53.813Z,19.93
2023-05-25T07:42:53.852Z,18.32
2023-05-25T07:43:53.933Z,19.61
2023-05-25T07:44:54.017Z,20.25
2023-05-25T07:45:54.103Z,20.25
2023-05-25T07:46:54.235Z,19.29
2023-05-25T07:47:54.287Z,21.87
2023-05-25T07:48:54.360Z,19.93
2023-05-25T07:49:54.417Z,20.25
2023-05-25T07:50:54.495Z,21.87
2023-05-25T07:51:54.575Z,20.58
2023-05-25T07:52:54.645Z,20.58
2023-05-25T07:53:54.730Z,20.90
2023-05-25T07:54:54.864Z,20.58
2023-05-25T07:55:54.868Z,20.25
2023-05-25T07:56:54.932Z,20.90
2023-05-25T07:57:55.014Z,20.90
2023-05-25T07:58:55.098Z,20.90
2023-05-25T07:59:55.201Z,22.51
2023-05-25T08:00:55.286Z,22.51
2023-05-25T08:01:55.446Z,21.54
2023-05-25T08:02:56.487Z,21.22
2023-05-25T08:03:55.677Z,20.90
2023-05-25T08:04:55.636Z,21.22
2023-05-25T08:05:55.681Z,21.87
2023-05-25T08:06:55.745Z,23.15
2023-05-25T08:07:55.805Z,22.19
2023-05-25T08:08:55.883Z,21.22
2023-05-25T08:09:55.969Z,20.90
2023-05-25T08:10:56.035Z,23.48
2023-05-25T08:12:07.586Z,21.87
2023-05-25T08:12:58.856Z,21.54
2023-05-25T08:13:56.278Z,21.54
2023-05-25T08:14:56.400Z,21.54
2023-05-25T08:15:56.430Z,22.19
2023-05-25T08:16:56.533Z,22.19
2023-05-25T08:17:56.903Z,22.19
2023-05-25T08:18:56.686Z,22.83
2023-05-25T08:19:56.792Z,21.22
2023-05-25T08:20:56.858Z,21.87
2023-05-25T08:21:56.929Z,23.48
2023-05-25T08:22:57.011Z,22.19
2023-05-25T08:23:57.085Z,22.51
2023-05-25T08:24:57.203Z,21.87
2023-05-25T08:25:57.260Z,23.15
2023-05-25T08:26:57.336Z,23.48
2023-05-25T08:27:57.398Z,22.19
2023-05-25T08:28:57.512Z,22.51
2023-05-25T08:29:57.587Z,23.48
2023-05-25T08:30:57.702Z,22.19
2023-05-25T08:31:57.742Z,22.83
2023-05-25T08:32:57.872Z,23.15
2023-05-25T08:33:57.885Z,23.80
2023-05-25T08:34:57.967Z,22.19
2023-05-25T08:35:58.043Z,22.19
2023-05-25T08:36:58.192Z,22.51
2023-05-25T08:37:58.224Z,23.48
2023-05-25T08:38:58.299Z,22.83
2023-05-25T08:39:58.360Z,22.83
2023-05-25T08:40:58.448Z,24.44
2023-05-25T08:41:58.512Z,22.83
2023-05-25T08:42:58.588Z,22.51
2023-05-25T08:43:58.691Z,22.83
2023-05-25T08:44:58.778Z,23.48
2023-05-25T08:45:58.871Z,22.83
2023-05-25T08:46:58.951Z,22.51
2023-05-25T08:47:59.234Z,22.83
2023-05-25T08:48:59.238Z,22.83
2023-05-25T08:49:59.220Z,22.19
2023-05-25T08:50:59.309Z,22.83
2023-05-25T08:51:59.389Z,22.51
2023-05-25T08:52:59.487Z,23.15
2023-05-25T08:53:59.557Z,23.15
2023-05-25T08:54:59.643Z,22.83
2023-05-25T08:55:59.714Z,23.48
2023-05-25T08:57:01.705Z,23.15
2023-05-25T08:57:59.866Z,22.83
2023-05-25T08:58:59.966Z,23.15
2023-05-25T09:00:00.017Z,22.83
2023-05-25T09:01:00.124Z,22.83
2023-05-25T09:02:00.297Z,22.83
2023-05-25T09:03:00.376Z,22.83
2023-05-25T09:04:00.420Z,23.15
2023-05-25T09:05:00.463Z,23.80
2023-05-25T09:06:00.517Z,23.48
2023-05-25T09:07:09.444Z,23.48
2023-05-25T09:08:00.697Z,22.83
2023-05-25T09:09:00.793Z,24.44
2023-05-25T09:10:00.871Z,23.15
2023-05-25T09:11:01.595Z,22.51
2023-05-25T09:12:01.054Z,22.83
2023-05-25T09:13:12.819Z,22.83
2023-05-25T09:14:01.193Z,22.83
2023-05-25T09:15:01.278Z,22.83
2023-05-25T09:16:01.438Z,23.15
2023-05-25T09:17:01.467Z,23.15
2023-05-25T09:18:01.542Z,22.83
2023-05-25T09:19:01.551Z,23.15
2023-05-25T09:20:01.671Z,22.83
2023-05-25T09:21:01.860Z,23.48
2023-05-25T09:23:01.886Z,24.77
2023-05-25T09:24:02.049Z,22.83
2023-05-25T09:25:02.069Z,23.15
2023-05-25T09:26:02.134Z,22.83
2023-05-25T09:27:02.239Z,22.83
2023-05-25T09:28:10.208Z,23.15
2023-05-25T09:29:02.386Z,23.15
2023-05-25T09:30:02.452Z,23.15
2023-05-25T09:31:02.558Z,23.15
2023-05-25T09:32:02.671Z,23.80
2023-05-25T09:33:02.741Z,23.48
2023-05-25T09:34:02.785Z,23.80
2023-05-25T09:35:02.848Z,23.15
2023-05-25T09:36:02.905Z,23.15
2023-05-25T09:37:03.137Z,22.83
2023-05-25T09:38:03.190Z,23.15
2023-05-25T09:39:03.280Z,22.83
2023-05-25T09:40:03.201Z,23.80
2023-05-25T09:41:03.289Z,22.83
2023-05-25T09:42:03.368Z,23.48
2023-05-25T09:43:03.452Z,23.15
2023-05-25T09:44:11.118Z,22.51
2023-05-25T09:45:03.618Z,23.48
2023-05-25T09:46:03.730Z,23.15
2023-05-25T09:47:03.782Z,24.12
2023-05-25T09:48:03.872Z,23.48
2023-05-25T09:49:03.955Z,23.48
2023-05-25T09:50:04.012Z,24.12
2023-05-25T09:51:04.095Z,22.83
2023-05-25T09:52:04.193Z,22.83
2023-05-25T09:53:04.258Z,23.15
2023-05-25T09:54:04.326Z,23.15
2023-05-25T09:55:04.410Z,23.80
2023-05-25T09:56:04.558Z,22.83
2023-05-25T09:57:04.573Z,22.83
2023-05-25T09:58:04.718Z,24.12
2023-05-25T09:59:04.833Z,23.48
2023-05-25T10:00:04.873Z,23.15
2023-05-25T10:01:04.929Z,22.83
2023-05-25T10:02:05.146Z,23.15
2023-05-25T10:03:05.086Z,23.48
2023-05-25T10:04:05.805Z,22.83
2023-05-25T10:05:05.179Z,24.12
2023-05-25T10:06:05.269Z,22.83
2023-05-25T10:07:05.329Z,23.15
2023-05-25T10:08:05.395Z,23.48
2023-05-25T10:09:05.477Z,23.15
2023-05-25T10:10:05.553Z,24.12
2023-05-25T10:11:05.651Z,23.15
2023-05-25T10:12:05.714Z,23.15
2023-05-25T10:13:05.915Z,25.09
2023-05-25T10:14:05.904Z,23.48
2023-05-25T10:15:05.986Z,23.48
2023-05-25T10:16:06.105Z,23.48
2023-05-25T10:17:06.139Z,23.15
2023-05-25T10:18:06.229Z,23.48
2023-05-25T10:19:06.302Z,23.15
2023-05-25T10:20:06.422Z,24.12
2023-05-25T10:21:06.707Z,23.15
2023-05-25T10:22:06.548Z,23.48
2023-05-25T10:23:06.621Z,22.83
2023-05-25T10:24:06.697Z,23.48
2023-05-25T10:25:06.792Z,24.12
2023-05-25T10:26:06.859Z,23.48
2023-05-25T10:27:18.473Z,22.83
2023-05-25T10:28:07.043Z,23.80
2023-05-25T10:29:07.116Z,23.48
2023-05-25T10:30:07.213Z,23.80
2023-05-25T10:31:07.380Z,23.48
2023-05-25T10:32:07.490Z,23.48
2023-05-25T10:33:08.412Z,23.80
2023-05-25T10:34:07.546Z,23.80
2023-05-25T10:35:07.626Z,23.48
2023-05-25T10:36:11.325Z,23.48
2023-05-25T10:37:07.782Z,23.80
2023-05-25T10:38:07.853Z,23.15
2023-05-25T10:39:09.008Z,23.80
2023-05-25T10:40:08.015Z,24.77
2023-05-25T10:41:08.191Z,23.48
2023-05-25T10:42:08.181Z,23.48
2023-05-25T10:43:08.253Z,25.09
2023-05-25T10:44:08.333Z,23.15
2023-05-25T10:45:08.422Z,23.80
2023-05-25T10:46:08.525Z,24.44
2023-05-25T10:47:08.677Z,23.48
2023-05-25T10:48:08.729Z,23.15
2023-05-25T10:49:08.776Z,23.15
2023-05-25T10:50:08.869Z,23.15
2023-05-25T10:51:11.181Z,23.80
2023-05-25T10:52:09.019Z,23.48
2023-05-25T10:53:09.105Z,23.48
2023-05-25T10:54:09.198Z,23.48
2023-05-25T10:55:09.269Z,23.48
2023-05-25T10:56:09.399Z,25.41
2023-05-25T10:57:09.463Z,23.48
2023-05-25T10:58:09.544Z,24.12
2023-05-25T10:59:09.630Z,24.44
2023-05-25T11:00:09.711Z,23.48
2023-05-25T11:01:09.921Z,24.12
2023-05-25T11:02:10.001Z,23.48
2023-05-25T11:03:10.005Z,23.15
2023-05-25T11:04:10.052Z,22.83
2023-05-25T11:05:10.110Z,22.83
2023-05-25T11:06:10.192Z,23.15
2023-05-25T11:07:10.298Z,23.80
2023-05-25T11:08:10.324Z,23.15
2023-05-25T11:09:10.400Z,22.83
2023-05-25T11:10:10.477Z,23.48
2023-05-25T11:11:10.562Z,23.48
2023-05-25T11:12:10.641Z,23.48
2023-05-25T11:13:10.723Z,23.48
2023-05-25T11:14:10.803Z,23.48
2023-05-25T11:15:10.879Z,23.80
2023-05-25T11:16:10.947Z,23.15
2023-05-25T11:17:11.198Z,23.15
2023-05-25T11:18:11.125Z,23.15
2023-05-25T11:19:11.185Z,23.48
2023-05-25T11:20:11.299Z,23.15
2023-05-25T11:21:11.338Z,23.15
2023-05-25T11:22:11.440Z,23.48
2023-05-25T11:23:11.520Z,23.15
2023-05-25T11:24:11.605Z,22.19
2023-05-25T11:25:11.681Z,23.48
2023-05-25T11:26:11.766Z,23.15
2023-05-25T11:27:11.859Z,22.83
2023-05-25T11:28:12.162Z,23.48
2023-05-25T11:29:12.008Z,23.15
2023-05-25T11:30:12.114Z,23.15
2023-05-25T11:31:12.232Z,23.48
2023-05-25T11:32:12.223Z,23.80
2023-05-25T11:33:12.299Z,25.41
2023-05-25T11:34:12.459Z,23.80
2023-05-25T11:35:12.448Z,23.80
2023-05-25T11:36:12.534Z,23.80
2023-05-25T11:37:12.617Z,23.48
2023-05-25T11:38:12.686Z,23.48
2023-05-25T11:39:20.911Z,23.48
2023-05-25T11:40:12.889Z,25.73
2023-05-25T11:41:12.915Z,23.15
2023-05-25T11:42:13.001Z,23.48
2023-05-25T11:43:13.082Z,23.15
2023-05-25T11:44:13.163Z,24.12
2023-05-25T11:45:13.239Z,23.48
2023-05-25T11:46:13.356Z,23.48
2023-05-25T11:47:13.487Z,23.80
2023-05-25T11:48:13.535Z,23.80
2023-05-25T11:49:13.556Z,24.12
2023-05-25T11:50:13.633Z,23.15
2023-05-25T11:51:13.723Z,23.48
2023-05-25T11:52:13.808Z,24.12
2023-05-25T11:53:13.919Z,23.15
2023-05-25T11:54:13.973Z,23.48
2023-05-25T11:55:14.063Z,23.48
2023-05-25T11:56:23.695Z,23.80
2023-05-25T11:57:14.229Z,23.48
2023-05-25T11:58:14.340Z,23.48
2023-05-25T11:59:14.423Z,23.15
2023-05-25T12:00:14.509Z,23.48
2023-05-25T12:01:14.579Z,22.51
2023-05-25T12:02:14.666Z,23.48
2023-05-25T12:03:14.811Z,23.48
2023-05-25T12:04:14.916Z,23.15
2023-05-25T12:05:14.913Z,23.15
2023-05-25T12:06:14.987Z,23.48
2023-05-25T12:07:15.064Z,23.80
2023-05-25T12:08:15.170Z,23.48
2023-05-25T12:09:15.244Z,23.48
2023-05-25T12:10:15.375Z,23.48
2023-05-25T12:11:15.396Z,23.15
2023-05-25T12:12:15.478Z,23.48
2023-05-25T12:13:15.544Z,23.15
2023-05-25T12:14:15.623Z,23.80
2023-05-25T12:15:16.729Z,23.48
2023-05-25T12:16:15.828Z,23.48
2023-05-25T12:17:15.925Z,23.15
2023-05-25T12:18:15.948Z,23.80
2023-05-25T12:19:16.015Z,23.80
2023-05-25T12:20:16.175Z,25.41
2023-05-25T12:21:16.185Z,24.44
2023-05-25T12:22:16.264Z,23.48
2023-05-25T12:23:16.326Z,23.48
2023-05-25T12:24:16.408Z,23.80
2023-05-25T12:25:16.617Z,22.51
2023-05-25T12:26:16.585Z,23.15
2023-05-25T12:27:16.677Z,23.80
2023-05-25T12:28:16.707Z,23.80
2023-05-25T12:29:16.772Z,23.15
2023-05-25T12:30:16.890Z,24.12
2023-05-25T12:31:16.988Z,24.44
2023-05-25T12:32:17.043Z,23.48
2023-05-25T12:33:17.154Z,25.41
2023-05-25T12:34:17.164Z,24.12
2023-05-25T12:35:17.262Z,23.15
2023-05-25T12:36:17.342Z,23.15
2023-05-25T12:37:17.429Z,23.80
2023-05-25T12:38:17.524Z,24.44
2023-05-25T12:39:17.611Z,24.12
2023-05-25T12:40:17.698Z,23.80
2023-05-25T12:41:17.750Z,23.15
2023-05-25T12:42:17.855Z,23.48
2023-05-25T12:43:17.965Z,23.15
2023-05-25T12:44:18.025Z,24.12
2023-05-25T12:45:18.119Z,25.41
2023-05-25T12:46:18.232Z,23.80
2023-05-25T12:47:18.276Z,23.48
2023-05-25T12:48:18.395Z,23.48
2023-05-25T12:49:18.468Z,23.80
2023-05-25T12:50:18.539Z,24.12
2023-05-25T12:51:18.620Z,23.48
2023-05-25T12:52:18.714Z,23.48
2023-05-25T12:53:18.797Z,24.12
2023-05-25T12:54:18.865Z,23.80